createdAt,value
2023-03-21T00:06:42.039Z,10.44
2023-03-21T00:16:45.722Z,10.46
2023-03-21T00:26:47.689Z,10.46
2023-03-21T00:36:49.266Z,10.49
2023-03-21T00:47:05.941Z,10.51
2023-03-21T00:57:08.798Z,10.47
2023-03-21T01:07:10.200Z,10.46
2023-03-21T01:17:11.652Z,10.46
2023-03-21T01:27:13.250Z,10.46
2023-03-21T01:37:14.704Z,10.44
2023-03-21T01:47:16.138Z,10.43
2023-03-21T01:57:41.022Z,10.40
2023-03-21T03:38:43.847Z,10.29
2023-03-21T03:49:00.268Z,10.29
2023-03-21T03:59:04.800Z,10.24
2023-03-21T04:09:18.725Z,10.23
2023-03-21T04:19:21.731Z,10.22
2023-03-21T04:29:23.051Z,10.24
2023-03-21T04:39:24.765Z,10.24
2023-03-21T04:49:26.428Z,10.27
2023-03-21T04:59:28.337Z,10.28
2023-03-21T05:09:29.704Z,10.21
2023-03-21T05:19:40.505Z,10.14
2023-03-21T05:29:42.065Z,10.07
2023-03-21T05:39:43.529Z,10.03
2023-03-21T05:49:45.255Z,10.02
2023-03-21T05:59:46.773Z,10.01
2023-03-21T06:09:48.268Z,9.99
2023-03-21T06:19:49.761Z,9.98
2023-03-21T06:29:51.542Z,9.97
2023-03-21T06:39:55.466Z,9.99
2023-03-21T06:49:57.077Z,10.07
2023-03-21T06:59:58.525Z,10.12
2023-03-21T07:10:00.212Z,10.18
2023-03-21T07:20:01.814Z,10.25
2023-03-21T07:30:07.055Z,10.31
2023-03-21T07:40:10.859Z,10.41
2023-03-21T07:50:13.286Z,10.49
2023-03-21T08:00:22.710Z,10.52
2023-03-21T08:10:24.878Z,10.63
2023-03-21T08:20:26.312Z,10.73
2023-03-21T08:30:28.406Z,10.79
2023-03-21T08:40:29.819Z,10.87
2023-03-21T08:50:31.837Z,10.91
2023-03-21T09:00:33.352Z,11.02
2023-03-21T09:10:34.890Z,11.05
2023-03-21T09:20:38.352Z,11.06
2023-03-21T09:30:39.868Z,11.02
2023-03-21T09:41:18.933Z,11.18
2023-03-21T09:51:22.041Z,11.33
2023-03-21T10:01:34.545Z,11.43
2023-03-21T10:11:44.980Z,11.55
2023-03-21T10:22:00.780Z,11.63
2023-03-21T10:32:03.586Z,11.59
2023-03-21T10:42:05.441Z,11.44
2023-03-21T10:52:10.339Z,11.36
2023-03-21T11:02:21.185Z,11.41
2023-03-21T11:12:39.162Z,11.57
2023-03-21T11:22:43.348Z,11.71
2023-03-21T11:32:44.849Z,11.80
2023-03-21T11:42:49.770Z,11.95
2023-03-21T11:53:06.017Z,12.21
2023-03-21T12:03:18.393Z,12.35
2023-03-21T12:13:44.892Z,12.47
2023-03-21T12:23:53.115Z,12.54
2023-03-21T12:34:13.077Z,12.50
2023-03-21T12:44:23.870Z,12.45
2023-03-21T12:54:31.650Z,12.54
2023-03-21T13:04:42.429Z,12.72
2023-03-21T13:15:12.471Z,12.84
2023-03-21T13:25:19.905Z,12.97
2023-03-21T13:35:30.545Z,13.07
2023-03-21T13:45:44.758Z,13.13
2023-03-21T13:55:57.963Z,13.12
2023-03-21T14:05:59.470Z,13.25
2023-03-21T14:16:08.694Z,13.25
2023-03-21T14:26:12.160Z,13.34
2023-03-21T14:36:19.604Z,13.29
2023-03-21T14:46:21.262Z,13.27
2023-03-21T14:56:25.107Z,13.37
2023-03-21T15:06:26.571Z,13.35
2023-03-21T15:16:28.717Z,13.57
2023-03-21T15:26:31.959Z,13.61
2023-03-21T15:36:37.643Z,13.67
2023-03-21T15:46:43.653Z,13.65
2023-03-21T15:56:51.804Z,13.68
2023-03-21T16:07:15.328Z,13.71
2023-03-21T16:17:37.808Z,13.60
2023-03-21T16:27:39.957Z,13.57
2023-03-21T16:37:42.093Z,13.47
2023-03-21T16:47:44.761Z,13.46
2023-03-21T16:57:46.930Z,13.35
2023-03-21T17:07:48.859Z,13.28
2023-03-21T17:17:50.310Z,13.24
2023-03-21T17:27:53.953Z,13.23
2023-03-21T17:37:58.174Z,13.13
2023-03-21T17:47:59.774Z,13.12
2023-03-21T17:58:01.692Z,13.08
2023-03-21T18:08:10.728Z,12.99
2023-03-21T18:18:14.516Z,12.84
2023-03-21T18:28:20.426Z,12.76
2023-03-21T18:38:22.842Z,12.75
2023-03-21T18:48:24.311Z,12.66
2023-03-21T18:58:28.132Z,12.61
2023-03-21T19:08:29.597Z,12.51
2023-03-21T19:18:53.133Z,12.48
2023-03-21T19:28:54.193Z,12.45
2023-03-21T19:38:55.650Z,12.30
2023-03-21T19:48:57.333Z,12.16
2023-03-21T19:58:59.763Z,12.09
2023-03-21T20:19:23.169Z,11.80
2023-03-21T20:39:46.555Z,11.51
2023-03-21T20:49:49.409Z,11.34
2023-03-21T20:59:50.907Z,11.40
2023-03-21T21:09:53.579Z,11.40
2023-03-21T21:19:55.299Z,11.36
2023-03-21T21:29:57.495Z,11.36
2023-03-21T21:39:58.903Z,11.30
2023-03-21T21:50:00.415Z,11.39
2023-03-21T22:00:06.552Z,11.44
2023-03-21T22:10:08.707Z,11.62
2023-03-21T22:20:12.632Z,11.56
2023-03-21T22:30:17.204Z,11.54
2023-03-21T22:40:18.759Z,11.48
2023-03-21T22:50:20.283Z,11.46
2023-03-21T23:00:21.795Z,11.46
2023-03-21T23:10:23.439Z,11.40
2023-03-21T23:20:24.926Z,11.33
2023-03-21T23:30:26.560Z,11.21
2023-03-21T23:40:27.974Z,11.25
2023-03-21T23:50:29.437Z,11.32
